Terminal Aerodrome Forecast
Issued by NWS

Home | Current Version | Previous Version | Text Only | Print | Product List | Glossary On
Versions: 1 2 3 4 5 6 7 8 9 10 11 12 13 14 15 16 17 18 19 20 21 22 23 24 25 26 27
000
FTUS42 KTBW 282117 AAA
TAFPIE
TAF AMD
KPIE 282117Z 2821/2918 27011KT P6SM VCSH SCT025 OVC050
      TEMPO 2821/2823 4SM SHRA BKN025
     FM282300 25008KT P6SM VCSH FEW025 SCT035 BKN080
     FM290300 27006KT P6SM FEW010 BKN050 BKN200
     FM291000 25008KT P6SM SHRA BKN040 BKN200=

USA.gov is the U.S. government's official web portal to all federal, state and local government web resources and services.